createdAt,value
2022-10-21T00:01:05.003Z,18.16
2022-10-21T00:03:37.780Z,18.17
2022-10-21T00:06:06.429Z,18.14
2022-10-21T00:08:34.614Z,18.14
2022-10-21T00:11:04.123Z,18.15
2022-10-21T00:13:34.551Z,18.14
2022-10-21T00:16:05.468Z,18.13
2022-10-21T00:18:35.646Z,18.14
2022-10-21T00:21:08.352Z,18.13
2022-10-21T00:23:36.456Z,18.12
2022-10-21T00:26:04.520Z,18.11
2022-10-21T00:28:33.046Z,18.11
2022-10-21T00:31:00.603Z,18.09
2022-10-21T00:33:28.951Z,18.08
2022-10-21T00:36:02.703Z,18.07
2022-10-21T00:38:31.930Z,18.06
2022-10-21T00:40:59.920Z,18.06
2022-10-21T00:43:28.408Z,18.04
2022-10-21T00:45:59.630Z,18.04
2022-10-21T00:48:40.950Z,18.02
2022-10-21T00:51:14.086Z,18.02
2022-10-21T00:53:46.021Z,18.02
2022-10-21T00:56:18.406Z,18.01
2022-10-21T00:58:48.263Z,17.99
2022-10-21T01:01:19.161Z,17.99
2022-10-21T01:03:50.788Z,17.97
2022-10-21T01:06:21.842Z,17.97
2022-10-21T01:08:50.867Z,17.97
2022-10-21T01:11:19.750Z,17.96
2022-10-21T01:13:50.287Z,17.95
2022-10-21T01:16:33.315Z,17.95
2022-10-21T01:19:01.065Z,17.94
2022-10-21T01:21:38.395Z,17.94
2022-10-21T01:24:26.298Z,17.93
2022-10-21T01:27:17.036Z,17.93
2022-10-21T01:30:09.158Z,17.91
2022-10-21T01:32:48.935Z,17.91
2022-10-21T01:35:47.962Z,17.90
2022-10-21T01:38:30.275Z,17.89
2022-10-21T01:41:15.154Z,17.89
2022-10-21T01:44:03.954Z,17.88
2022-10-21T01:46:40.710Z,17.87
2022-10-21T01:49:15.800Z,17.86
2022-10-21T01:51:44.633Z,17.86
2022-10-21T01:54:28.082Z,17.85
2022-10-21T01:56:58.384Z,17.84
2022-10-21T01:59:30.120Z,17.85
2022-10-21T02:02:04.775Z,17.85
2022-10-21T02:04:34.793Z,17.85
2022-10-21T02:07:03.057Z,17.85
2022-10-21T02:12:03.210Z,17.85
2022-10-21T02:14:33.062Z,17.86
2022-10-21T02:17:01.051Z,17.85
2022-10-21T02:19:28.913Z,17.85
2022-10-21T02:22:00.313Z,17.85
2022-10-21T02:24:38.442Z,17.85
2022-10-21T02:27:06.299Z,17.85
2022-10-21T02:29:38.346Z,17.84
2022-10-21T02:32:15.823Z,17.84
2022-10-21T02:35:29.562Z,17.83
2022-10-21T02:38:21.136Z,17.83
2022-10-21T02:40:56.192Z,17.84
2022-10-21T02:43:34.164Z,17.82
2022-10-21T02:46:10.761Z,17.82
2022-10-21T02:48:40.561Z,17.81
2022-10-21T02:51:08.371Z,17.81
2022-10-21T02:53:36.767Z,17.81
2022-10-21T02:56:05.302Z,17.82
2022-10-21T02:58:34.218Z,17.80
2022-10-21T03:01:01.990Z,17.79
2022-10-21T03:03:29.996Z,17.80
2022-10-21T03:05:57.950Z,17.80
2022-10-21T03:08:25.783Z,17.78
2022-10-21T03:10:53.794Z,17.79
2022-10-21T03:13:23.136Z,17.79
2022-10-21T03:15:51.419Z,17.78
2022-10-21T03:18:19.505Z,17.77
2022-10-21T03:20:51.039Z,17.78
2022-10-21T03:23:19.638Z,17.77
2022-10-21T03:25:47.678Z,17.77
2022-10-21T03:28:15.383Z,17.76
2022-10-21T03:30:42.979Z,17.76
2022-10-21T03:33:10.658Z,17.75
2022-10-21T03:35:38.308Z,17.75
2022-10-21T03:38:06.038Z,17.75
2022-10-21T03:40:33.576Z,17.75
2022-10-21T03:43:01.257Z,17.74
2022-10-21T03:45:28.680Z,17.73
2022-10-21T03:47:56.773Z,17.73
2022-10-21T03:50:26.560Z,17.72
2022-10-21T03:52:55.122Z,17.72
2022-10-21T03:55:24.968Z,17.72
2022-10-21T03:57:53.767Z,17.72
2022-10-21T04:00:21.779Z,17.72
2022-10-21T04:02:49.816Z,17.71
2022-10-21T04:05:17.891Z,17.71
2022-10-21T04:07:49.356Z,17.71
2022-10-21T04:10:21.222Z,17.69
2022-10-21T04:12:49.588Z,17.69
2022-10-21T04:15:17.598Z,17.71
2022-10-21T04:17:46.854Z,17.68
2022-10-21T04:20:14.437Z,17.67
2022-10-21T04:22:42.152Z,17.68
2022-10-21T04:25:09.690Z,17.67
2022-10-21T04:27:38.187Z,17.67
2022-10-21T04:30:07.196Z,17.66
2022-10-21T04:32:35.087Z,17.66
2022-10-21T04:35:03.528Z,17.66
2022-10-21T04:37:31.344Z,17.66
2022-10-21T04:39:58.784Z,17.65
2022-10-21T04:44:59.269Z,17.65
2022-10-21T04:47:26.947Z,17.64
2022-10-21T04:49:54.462Z,17.64
2022-10-21T04:52:22.134Z,17.64
2022-10-21T04:54:49.575Z,17.63
2022-10-21T04:57:17.385Z,17.64
2022-10-21T04:59:44.871Z,17.64
2022-10-21T05:02:13.708Z,17.63
2022-10-21T05:04:41.224Z,17.63
2022-10-21T05:07:09.438Z,17.64
2022-10-21T05:09:37.009Z,17.63
2022-10-21T05:12:04.802Z,17.62
2022-10-21T05:14:32.306Z,17.62
2022-10-21T05:17:00.277Z,17.64
2022-10-21T05:19:31.138Z,17.62
2022-10-21T05:21:59.393Z,17.63
2022-10-21T05:24:27.058Z,17.63
2022-10-21T05:26:55.554Z,17.63
2022-10-21T05:29:23.053Z,17.63
2022-10-21T05:31:50.711Z,17.64
2022-10-21T05:34:18.315Z,17.63
2022-10-21T05:36:48.897Z,17.63
2022-10-21T05:39:16.407Z,17.63
2022-10-21T05:41:47.032Z,17.62
2022-10-21T05:44:16.945Z,17.62
2022-10-21T05:46:44.793Z,17.61
2022-10-21T05:49:13.108Z,17.60
2022-10-21T05:51:40.964Z,17.60
2022-10-21T05:54:08.455Z,17.61
2022-10-21T05:56:36.147Z,17.60
2022-10-21T05:59:06.616Z,17.61
2022-10-21T06:01:37.264Z,17.60
2022-10-21T06:04:05.779Z,17.60
2022-10-21T06:06:33.582Z,17.60
2022-10-21T06:09:02.388Z,17.59
2022-10-21T06:11:30.155Z,17.59
2022-10-21T06:13:57.780Z,17.59
2022-10-21T06:16:25.973Z,17.59
2022-10-21T06:18:53.486Z,17.58
2022-10-21T06:21:21.385Z,17.58
2022-10-21T06:23:52.450Z,17.57
2022-10-21T06:26:20.696Z,17.57
2022-10-21T06:28:48.259Z,17.56
2022-10-21T06:31:19.163Z,17.57
2022-10-21T06:33:46.582Z,17.58
2022-10-21T06:36:14.486Z,17.56
2022-10-21T06:38:44.277Z,17.57
2022-10-21T06:41:14.800Z,17.56
2022-10-21T06:43:42.848Z,17.57
2022-10-21T06:46:13.159Z,17.57
2022-10-21T06:48:41.542Z,17.56
2022-10-21T06:51:16.400Z,17.56
2022-10-21T06:53:44.657Z,17.57
2022-10-21T06:56:16.528Z,17.58
2022-10-21T06:58:49.033Z,17.59
2022-10-21T07:01:35.001Z,17.60
2022-10-21T07:04:10.196Z,17.59
2022-10-21T07:06:38.340Z,17.61
2022-10-21T07:09:08.080Z,17.61
2022-10-21T07:11:35.977Z,17.63
2022-10-21T07:14:03.802Z,17.65
2022-10-21T07:16:33.884Z,17.65
2022-10-21T07:19:01.517Z,17.68
2022-10-21T07:21:31.407Z,17.67
2022-10-21T07:24:00.631Z,17.68
2022-10-21T07:26:30.482Z,17.69
2022-10-21T07:28:59.890Z,17.71
2022-10-21T07:31:31.583Z,17.72
2022-10-21T07:34:01.158Z,17.71
2022-10-21T07:36:32.714Z,17.73
2022-10-21T07:39:04.489Z,17.71
2022-10-21T07:41:38.898Z,17.71
2022-10-21T07:44:07.506Z,17.70
2022-10-21T07:46:36.985Z,17.68
2022-10-21T07:49:04.887Z,17.71
2022-10-21T07:51:32.716Z,17.68
2022-10-21T07:54:01.812Z,17.68
2022-10-21T07:56:50.786Z,17.68
2022-10-21T07:59:20.265Z,17.69
2022-10-21T08:04:18.390Z,17.68
2022-10-21T08:06:48.149Z,17.69
2022-10-21T08:09:16.938Z,17.67
2022-10-21T08:11:44.736Z,17.69
2022-10-21T08:14:12.381Z,17.68
2022-10-21T08:16:40.551Z,17.69
2022-10-21T08:19:09.269Z,17.69
2022-10-21T08:21:37.712Z,17.69
2022-10-21T08:24:05.617Z,17.68
2022-10-21T08:26:33.604Z,17.68
2022-10-21T08:29:03.622Z,17.68
2022-10-21T08:31:31.410Z,17.68
2022-10-21T08:33:59.377Z,17.68
2022-10-21T08:36:27.256Z,17.68
2022-10-21T08:38:55.224Z,17.69
2022-10-21T08:41:28.909Z,17.69
2022-10-21T08:44:05.865Z,17.69
2022-10-21T08:46:37.794Z,17.69
2022-10-21T08:49:07.725Z,17.72
2022-10-21T08:51:41.774Z,17.69
2022-10-21T08:54:19.284Z,17.70
2022-10-21T08:56:50.429Z,17.72
2022-10-21T08:59:23.969Z,17.73
2022-10-21T09:01:59.888Z,17.73
2022-10-21T09:04:36.450Z,17.72
2022-10-21T09:07:15.319Z,17.73
2022-10-21T09:09:53.863Z,17.72
2022-10-21T09:13:02.676Z,17.72
2022-10-21T09:15:49.659Z,17.72
2022-10-21T09:18:35.296Z,17.72
2022-10-21T09:21:08.795Z,17.71
2022-10-21T09:23:58.029Z,17.71
2022-10-21T09:26:43.018Z,17.69
2022-10-21T09:29:29.724Z,17.69
2022-10-21T09:32:10.740Z,17.71
2022-10-21T09:34:45.508Z,17.69
2022-10-21T09:37:22.389Z,17.69
2022-10-21T09:39:59.104Z,17.69
2022-10-21T09:42:46.398Z,17.68
2022-10-21T09:45:36.468Z,17.68
2022-10-21T09:48:06.243Z,17.69
2022-10-21T09:50:35.059Z,17.69
2022-10-21T09:53:28.984Z,17.69
2022-10-21T09:56:03.840Z,17.68
2022-10-21T09:58:37.514Z,17.69
2022-10-21T10:01:06.537Z,17.69
2022-10-21T10:03:36.889Z,17.68
2022-10-21T10:06:05.896Z,17.69
2022-10-21T10:08:44.228Z,17.69
2022-10-21T10:11:18.745Z,17.70
2022-10-21T10:13:49.215Z,17.68
2022-10-21T10:16:22.728Z,17.69
2022-10-21T10:18:53.215Z,17.69
2022-10-21T10:21:22.460Z,17.69
2022-10-21T10:23:49.881Z,17.69
2022-10-21T10:26:30.307Z,17.69
2022-10-21T10:29:10.596Z,17.69
2022-10-21T10:31:39.028Z,17.70
2022-10-21T10:34:09.027Z,17.71
2022-10-21T10:36:39.663Z,17.71
2022-10-21T10:39:16.892Z,17.71
2022-10-21T10:41:50.128Z,17.71
2022-10-21T10:44:38.943Z,17.71
2022-10-21T10:47:17.703Z,17.72
2022-10-21T10:49:45.598Z,17.73
2022-10-21T10:52:13.725Z,17.73
2022-10-21T10:54:43.302Z,17.74
2022-10-21T10:57:34.338Z,17.72
2022-10-21T11:00:22.179Z,17.72
2022-10-21T11:03:05.391Z,17.73
2022-10-21T11:05:48.832Z,17.74
2022-10-21T11:08:18.299Z,17.73
2022-10-21T11:10:50.731Z,17.73
2022-10-21T11:13:21.620Z,17.73
2022-10-21T11:16:24.895Z,17.73
2022-10-21T11:19:20.649Z,17.74
2022-10-21T11:21:52.995Z,17.73
2022-10-21T11:24:37.439Z,17.73
2022-10-21T11:27:29.561Z,17.73
2022-10-21T11:30:12.247Z,17.73
2022-10-21T11:32:53.795Z,17.74
2022-10-21T11:35:27.380Z,17.74
2022-10-21T11:38:00.558Z,17.74
2022-10-21T11:40:48.424Z,17.74
2022-10-21T11:43:18.887Z,17.74
2022-10-21T11:45:58.273Z,17.75
2022-10-21T11:48:41.453Z,17.75
2022-10-21T11:51:21.068Z,17.74
2022-10-21T11:55:08.320Z,17.75
2022-10-21T11:58:13.162Z,17.77
2022-10-21T12:01:09.280Z,17.76
2022-10-21T12:03:47.814Z,17.77
2022-10-21T12:06:42.340Z,17.79
2022-10-21T12:09:26.717Z,17.80
2022-10-21T12:12:11.801Z,17.79
2022-10-21T12:14:49.509Z,17.79
2022-10-21T12:17:23.186Z,17.78
2022-10-21T12:20:06.372Z,17.79
2022-10-21T12:22:35.227Z,17.80
2022-10-21T12:25:27.946Z,17.79
2022-10-21T12:28:20.960Z,17.78
2022-10-21T12:31:22.813Z,17.79
2022-10-21T12:33:50.829Z,17.79
2022-10-21T12:36:24.717Z,17.80
2022-10-21T12:38:59.170Z,17.79
2022-10-21T12:41:34.112Z,17.79
2022-10-21T12:44:01.568Z,17.81
2022-10-21T12:46:42.469Z,17.81
2022-10-21T12:49:22.043Z,17.81
2022-10-21T12:52:05.502Z,17.81
2022-10-21T12:54:57.781Z,17.81
2022-10-21T12:57:33.352Z,17.80
2022-10-21T13:00:27.038Z,17.81
2022-10-21T13:03:11.960Z,17.82
2022-10-21T13:05:39.427Z,17.82
2022-10-21T13:08:28.443Z,17.81
2022-10-21T13:11:05.516Z,17.81
2022-10-21T13:13:39.394Z,17.81
2022-10-21T13:16:28.183Z,17.82
2022-10-21T13:19:17.710Z,17.83
2022-10-21T13:21:49.531Z,17.82
2022-10-21T13:24:26.597Z,17.83
2022-10-21T13:26:59.914Z,17.82
2022-10-21T13:29:36.735Z,17.83
2022-10-21T13:32:21.152Z,17.84
2022-10-21T13:34:49.047Z,17.83
2022-10-21T13:37:31.410Z,17.85
2022-10-21T13:40:02.993Z,17.86
2022-10-21T13:42:39.637Z,17.85
2022-10-21T13:45:34.845Z,17.85
2022-10-21T13:48:34.371Z,17.86
2022-10-21T13:51:18.480Z,17.86
2022-10-21T13:53:46.673Z,17.86
2022-10-21T13:56:24.611Z,17.86
2022-10-21T13:58:52.426Z,17.86
2022-10-21T14:01:25.475Z,17.86
2022-10-21T14:03:54.919Z,17.85
2022-10-21T14:06:32.448Z,17.85
2022-10-21T14:09:04.144Z,17.86
2022-10-21T14:11:45.166Z,17.86
2022-10-21T14:14:16.245Z,17.88
2022-10-21T14:16:51.114Z,17.87
2022-10-21T14:19:22.569Z,17.88
2022-10-21T14:21:53.518Z,17.88
2022-10-21T14:24:31.539Z,17.88
2022-10-21T14:27:01.078Z,17.87
2022-10-21T14:29:33.079Z,17.87
2022-10-21T14:32:01.747Z,17.90
2022-10-21T14:34:35.171Z,17.89
2022-10-21T14:37:12.168Z,17.88
2022-10-21T14:39:39.899Z,17.89
2022-10-21T14:42:20.490Z,17.88
2022-10-21T14:44:51.685Z,17.87
2022-10-21T14:47:26.012Z,17.88
2022-10-21T14:49:59.713Z,17.88
2022-10-21T14:52:34.565Z,17.91
2022-10-21T14:55:08.213Z,17.89
2022-10-21T14:57:44.932Z,17.90
2022-10-21T15:00:33.281Z,17.91
2022-10-21T15:03:01.950Z,17.92
2022-10-21T15:05:29.472Z,17.90
2022-10-21T15:08:22.605Z,17.91
2022-10-21T15:11:05.476Z,17.91
2022-10-21T15:13:33.299Z,17.90
2022-10-21T15:16:03.887Z,17.90
2022-10-21T15:18:40.136Z,17.91
2022-10-21T15:21:12.397Z,17.90
2022-10-21T15:23:41.631Z,17.90
2022-10-21T15:26:26.189Z,17.90
2022-10-21T15:28:54.757Z,17.91
2022-10-21T15:31:24.761Z,17.91
2022-10-21T15:33:54.232Z,17.91
2022-10-21T15:36:23.763Z,17.91
2022-10-21T15:38:51.717Z,17.91
2022-10-21T15:41:25.443Z,17.89
2022-10-21T15:44:19.210Z,17.90
2022-10-21T15:46:47.359Z,17.90
2022-10-21T15:49:21.388Z,17.90
2022-10-21T15:51:50.096Z,17.90
2022-10-21T15:54:20.150Z,17.91
2022-10-21T15:56:51.327Z,17.91
2022-10-21T15:59:20.317Z,17.90
2022-10-21T16:01:48.833Z,17.91
2022-10-21T16:04:16.868Z,17.90
2022-10-21T16:06:48.936Z,17.91
2022-10-21T16:09:23.890Z,17.91
2022-10-21T16:11:59.376Z,17.92
2022-10-21T16:14:30.732Z,17.91
2022-10-21T16:16:59.375Z,17.91
2022-10-21T16:19:28.592Z,17.89
2022-10-21T16:21:56.529Z,17.90
2022-10-21T16:24:24.346Z,17.91
2022-10-21T16:26:51.817Z,17.92
2022-10-21T16:29:22.587Z,17.92
2022-10-21T16:31:51.207Z,17.91
2022-10-21T16:34:19.608Z,17.91
2022-10-21T16:36:47.128Z,17.91
2022-10-21T16:39:17.627Z,17.92
2022-10-21T16:41:45.238Z,17.92
2022-10-21T16:44:13.198Z,17.92
2022-10-21T16:46:53.787Z,17.91
2022-10-21T16:49:26.697Z,17.91
2022-10-21T16:51:55.140Z,17.92
2022-10-21T16:54:23.724Z,17.92
2022-10-21T16:56:54.692Z,17.91
2022-10-21T16:59:23.725Z,17.92
2022-10-21T17:01:54.045Z,17.93
2022-10-21T17:04:21.814Z,17.92
2022-10-21T17:06:49.469Z,17.93
2022-10-21T17:09:17.818Z,17.92
2022-10-21T17:11:46.227Z,17.92
2022-10-21T17:14:18.057Z,17.91
2022-10-21T17:16:46.149Z,17.91
2022-10-21T17:19:14.793Z,17.91
2022-10-21T17:21:43.383Z,17.90
2022-10-21T17:24:18.244Z,17.90
2022-10-21T17:26:47.586Z,17.90
2022-10-21T17:29:15.632Z,17.91
2022-10-21T17:31:43.694Z,17.91
2022-10-21T17:34:32.355Z,17.91
2022-10-21T17:37:00.471Z,17.92
2022-10-21T17:39:28.209Z,17.91
2022-10-21T17:41:58.375Z,17.92
2022-10-21T17:44:28.467Z,17.93
2022-10-21T17:46:55.990Z,17.93
2022-10-21T17:49:26.187Z,17.95
2022-10-21T17:51:53.767Z,17.94
2022-10-21T17:54:26.097Z,17.96
2022-10-21T17:56:56.773Z,17.97
2022-10-21T17:59:26.721Z,17.96
2022-10-21T18:01:56.236Z,17.96
2022-10-21T18:04:23.949Z,17.97
2022-10-21T18:06:51.609Z,17.99
2022-10-21T18:09:19.412Z,18.00
2022-10-21T18:11:46.930Z,18.00
2022-10-21T18:14:14.717Z,18.01
2022-10-21T18:16:42.247Z,18.02
2022-10-21T18:19:10.143Z,18.03
2022-10-21T18:21:37.760Z,18.04
2022-10-21T18:24:09.883Z,18.04
2022-10-21T18:26:40.489Z,18.06
2022-10-21T18:29:08.342Z,18.06
2022-10-21T18:31:37.923Z,18.08
2022-10-21T18:34:09.072Z,18.08
2022-10-21T18:36:39.265Z,18.09
2022-10-21T18:39:10.460Z,18.11
2022-10-21T18:41:42.750Z,18.12
2022-10-21T18:44:14.304Z,18.12
2022-10-21T18:46:43.137Z,18.12
2022-10-21T18:49:14.478Z,18.13
2022-10-21T18:51:42.397Z,18.14
2022-10-21T18:54:13.595Z,18.14
2022-10-21T18:56:41.388Z,18.15
2022-10-21T18:59:10.066Z,18.16
2022-10-21T19:01:37.786Z,18.16
2022-10-21T19:04:05.648Z,18.16
2022-10-21T19:06:36.040Z,18.17
2022-10-21T19:09:29.663Z,18.17
2022-10-21T19:12:01.406Z,18.16
2022-10-21T19:14:28.920Z,18.17
2022-10-21T19:16:56.695Z,18.18
2022-10-21T19:19:25.837Z,18.18
2022-10-21T19:21:54.808Z,18.18
2022-10-21T19:24:22.633Z,18.17
2022-10-21T19:26:58.636Z,18.17
2022-10-21T19:29:26.730Z,18.18
2022-10-21T19:31:57.711Z,18.18
2022-10-21T19:34:28.729Z,18.18
2022-10-21T19:36:56.477Z,18.18
2022-10-21T19:39:24.104Z,18.18
2022-10-21T19:41:57.605Z,18.18
2022-10-21T19:44:25.256Z,18.18
2022-10-21T19:46:52.947Z,18.18
2022-10-21T19:49:21.355Z,18.19
2022-10-21T19:51:52.143Z,18.19
2022-10-21T19:54:19.748Z,18.19
2022-10-21T19:56:47.544Z,18.19
2022-10-21T19:59:15.180Z,18.20
2022-10-21T20:01:43.210Z,18.21
2022-10-21T20:04:10.778Z,18.21
2022-10-21T20:06:39.175Z,18.22
2022-10-21T20:09:10.363Z,18.23
2022-10-21T20:11:41.047Z,18.23
2022-10-21T20:14:10.918Z,18.24
2022-10-21T20:16:42.014Z,18.24
2022-10-21T20:19:12.424Z,18.24
2022-10-21T20:21:41.256Z,18.24
2022-10-21T20:24:12.901Z,18.24
2022-10-21T20:26:42.763Z,18.25
2022-10-21T20:29:11.191Z,18.25
2022-10-21T20:31:39.231Z,18.24
2022-10-21T20:34:06.787Z,18.24
2022-10-21T20:36:36.811Z,18.25
2022-10-21T20:39:04.656Z,18.26
2022-10-21T20:41:37.083Z,18.26
2022-10-21T20:44:08.043Z,18.25
2022-10-21T20:46:36.231Z,18.26
2022-10-21T20:49:06.191Z,18.26
2022-10-21T20:51:36.098Z,18.25
2022-10-21T20:54:09.106Z,18.25
2022-10-21T20:56:39.548Z,18.26
2022-10-21T20:59:15.641Z,18.25
2022-10-21T21:01:47.106Z,18.25
2022-10-21T21:04:16.968Z,18.25
2022-10-21T21:06:47.415Z,18.26
2022-10-21T21:12:04.633Z,18.26
2022-10-21T21:14:33.398Z,18.24
2022-10-21T21:17:01.563Z,18.25
2022-10-21T21:19:29.053Z,18.25
2022-10-21T21:21:57.849Z,18.25
2022-10-21T21:24:25.677Z,18.24
2022-10-21T21:26:53.789Z,18.24
2022-10-21T21:29:21.280Z,18.24
2022-10-21T21:31:49.412Z,18.24
2022-10-21T21:34:18.430Z,18.23
2022-10-21T21:36:46.116Z,18.24
2022-10-21T21:41:42.855Z,18.23
2022-10-21T21:44:10.311Z,18.22
2022-10-21T21:46:38.051Z,18.22
2022-10-21T21:49:06.434Z,18.23
2022-10-21T21:51:36.583Z,18.22
2022-10-21T21:54:07.716Z,18.23
2022-10-21T21:56:35.635Z,18.22
2022-10-21T21:59:03.541Z,18.22
2022-10-21T22:01:31.478Z,18.22
2022-10-21T22:04:00.392Z,18.22
2022-10-21T22:06:31.706Z,18.22
2022-10-21T22:09:00.359Z,18.22
2022-10-21T22:11:31.203Z,18.22
2022-10-21T22:13:59.874Z,18.21
2022-10-21T22:16:30.405Z,18.20
2022-10-21T22:18:59.971Z,18.21
2022-10-21T22:21:29.430Z,18.20
2022-10-21T22:23:56.922Z,18.20
2022-10-21T22:26:26.853Z,18.20
2022-10-21T22:28:54.976Z,18.18
2022-10-21T22:31:28.944Z,18.18
2022-10-21T22:34:04.282Z,18.18
2022-10-21T22:36:34.320Z,18.18
2022-10-21T22:39:01.994Z,18.18
2022-10-21T22:41:29.659Z,18.18
2022-10-21T22:43:57.949Z,18.18
2022-10-21T22:46:33.918Z,18.17
2022-10-21T22:49:05.585Z,18.16
2022-10-21T22:51:33.761Z,18.16
2022-10-21T22:54:01.621Z,18.16
2022-10-21T22:56:29.814Z,18.16
2022-10-21T22:58:57.625Z,18.17
2022-10-21T23:01:30.672Z,18.15
2022-10-21T23:04:02.762Z,18.16
2022-10-21T23:06:32.320Z,18.16
2022-10-21T23:09:01.090Z,18.15
2022-10-21T23:11:29.686Z,18.15
2022-10-21T23:14:03.432Z,18.15
2022-10-21T23:16:37.128Z,18.16
2022-10-21T23:19:08.779Z,18.15
2022-10-21T23:21:37.416Z,18.15
2022-10-21T23:24:05.692Z,18.13
2022-10-21T23:26:33.401Z,18.14
2022-10-21T23:29:01.120Z,18.14
2022-10-21T23:31:28.787Z,18.12
2022-10-21T23:33:56.341Z,18.13
2022-10-21T23:36:24.139Z,18.13
2022-10-21T23:38:54.778Z,18.13
2022-10-21T23:41:23.061Z,18.12
2022-10-21T23:43:50.480Z,18.12
2022-10-21T23:46:18.596Z,18.12
2022-10-21T23:48:46.759Z,18.12
2022-10-21T23:51:14.726Z,18.13
2022-10-21T23:53:42.187Z,18.12
2022-10-21T23:56:10.309Z,18.11
2022-10-21T23:58:37.804Z,18.12
